Login

piscar
1 activity; - Last training unit 26/01/2013
26/01/2013 Show to everybody Allenamento 26-01-13 alle 08:36 53.36 628 03:12:57 16.59 Km\h flash2 \'29
19/01/2013 Show to everybody Allenamento 19-01-13 alle 08:50 61.31 516 03:32:50 17.28 Km\h flash2 \'29
12/01/2013 Show to everybody Allenamento 12-01-13 alle 08:36 62.49 615 03:15:19 19.2 Km\h flash2 \'29
06/01/2013 Show to everybody Allenamento 06-01-13 alle 08:34 56.6 618 03:20:22 16.95 Km\h flash2 \'29
04/01/2013 Show to everybody Allenamento 04-01-13 alle 08:07 61.8 543 03:15:05 19.01 Km\h flash2 \'29
31/12/2012 Show to everybody 76 50.36 481 03:04:32 16.37 Km\h flash2 \'29
29/12/2012 Show to everybody 75 39.26 212 01:59:21 19.73 Km\h flash2 \'29
24/12/2012 Show to everybody 74 9.26 2 00:27:53 19.93 Km\h flash2 \'29
25/11/2012 Show to everybody 73 66.82 488 02:54:05 23.03 Km\h flash2 \'29
17/11/2012 Show to everybody 72 58.47 678 03:35:36 16.27 Km\h flash2 \'29
02/11/2012 Show to everybody 71 59.29 721 03:31:28 16.82 Km\h flash2 \'29
21/10/2012 Show to everybody 70 54.6 706 03:02:00 18 Km\h flash2 \'29
14/10/2012 Show to everybody 68 gara sociale 10.58 194 00:48:47 13.01 Km\h flash2 \'29
14/10/2012 Show to everybody 69 staffetta gara sociale 3.53 72 00:14:51 14.24 Km\h flash2 \'29
06/10/2012 Show to everybody 67 54.2 687 03:22:07 16.09 Km\h flash2 \'29
30/09/2012 Show to everybody 66 10.36 323 00:49:17 12.62 Km\h flash2 \'29
23/09/2012 Show to everybody 65 62.07 771 03:25:40 18.11 Km\h flash2 \'29
21/09/2012 Show to everybody 64 36.83 72 01:32:04 24 Km\h flash2 \'29
15/09/2012 Show to everybody 63 59.87 770 04:00:41 14.92 Km\h flash2 \'29
30/08/2012 Show to everybody 62 58.25 157 02:52:05 20.31 Km\h flash2 \'29
28/08/2012 Show to everybody 61 60.4 620 04:21:59 13.83 Km\h flash2 \'29
24/08/2012 Show to everybody 60 61.92 554 03:48:23 16.27 Km\h flash2 \'29
15/08/2012 Show to everybody 59 30.5 253 01:33:33 19.56 Km\h flash2 \'29
13/08/2012 Show to everybody 58 30.48 230 01:34:13 19.41 Km\h flash2 \'29
08/08/2012 Show to everybody 57 52.49 680 03:14:19 16.21 Km\h flash2 \'29
28/07/2012 Show to everybody 56 notturna castello este 7.87 157 00:33:37 14.06 Km\h flash2 \'29
26/07/2012 Show to everybody 55 38.59 97 01:25:11 27.18 Km\h six13
24/07/2012 Show to everybody 54 37.42 246 01:47:48 20.83 Km\h flash2 \'29
14/07/2012 Show to everybody 53 52.66 512 02:47:25 18.87 Km\h flash2 \'29
12/07/2012 Show to everybody 52 37.68 119 01:41:19 22.32 Km\h flash2 \'29
07/07/2012 Show to everybody 51 dsb 123.29 3274 08:48:29 14 Km\h flash2 \'29
04/07/2012 Show to everybody 50 56.86 318 02:42:20 21.01 Km\h flash2 \'29
02/07/2012 Show to everybody 49 38.11 48 01:44:28 21.89 Km\h flash2 \'29
30/06/2012 Show to everybody 48 76.91 1032 04:31:22 17 Km\h flash2 \'29
28/06/2012 Show to everybody 47 37.03 309 01:52:58 19.67 Km\h flash2 \'29
26/06/2012 Show to everybody 46 44.57 353 02:17:19 19.48 Km\h flash2 \'29
24/06/2012 Show to everybody 45 valleogra 40.28 1301 03:07:34 12.88 Km\h flash2 \'29
21/06/2012 Show to everybody 44 39.52 393 02:09:05 18.37 Km\h flash2 \'29
19/06/2012 Show to everybody 43 47.82 413 02:28:36 19.31 Km\h flash2 \'29
16/06/2012 Show to everybody 42 62.95 841 03:52:13 16.27 Km\h flash2 \'29
13/06/2012 Show to everybody 41 60.83 460 03:01:52 20.07 Km\h flash2 \'29
10/06/2012 Show to everybody 40 45.95 354 02:04:14 22.19 Km\h flash2 \'29
09/06/2012 Show to everybody 39 63.14 728 03:34:59 17.62 Km\h flash2 \'29
07/06/2012 Show to everybody 38 bdc 47.25 234 01:50:43 25.6 Km\h six13
05/06/2012 Show to everybody 37 scarico 43.61 153 02:01:45 21.49 Km\h flash2 \'29
03/06/2012 Show to everybody 36 gf cimbri 42.14 1290 03:03:59 13.74 Km\h flash2 \'29
31/05/2012 Show to everybody 35 38.84 299 02:06:46 18.38 Km\h flash2 \'29
29/05/2012 Show to everybody 34 46.34 285 03:45:51 12.31 Km\h flash2 \'29
27/05/2012 Show to everybody 33 54.42 700 03:03:18 17.81 Km\h flash2 \'29
26/05/2012 Show to everybody 32 56.58 647 03:22:52 16.73 Km\h flash2 \'29
20/05/2012 Show to everybody 31 51.02 528 02:54:29 17.54 Km\h flash2 \'29
19/05/2012 Show to everybody 30 59.37 590 03:15:36 18.21 Km\h flash2 \'29
16/05/2012 Show to everybody 29 38.17 360 02:13:29 17.16 Km\h flash2 \'29
12/05/2012 Show to everybody 28 51.52 547 03:08:07 16.43 Km\h flash2 \'29
09/05/2012 Show to everybody 27 36.96 51 01:39:22 22.32 Km\h flash2 \'29
05/05/2012 Show to everybody 26 70.64 483 02:47:59 25.23 Km\h flash2 \'29
01/05/2012 Show to everybody 25 42.9 332 02:41:48 15.91 Km\h flash2 \'29
29/04/2012 Show to everybody 24 43.54 293 02:31:49 17.21 Km\h flash2 \'29
25/04/2012 Show to everybody 23 87.07 856 03:31:02 24.75 Km\h flash2 \'29
22/04/2012 Show to everybody 22 62 844 03:34:14 17.36 Km\h flash2 \'29
21/04/2012 Show to everybody 21 40.27 158 02:11:23 18.39 Km\h flash2 \'29
19/04/2012 Show to everybody 20 11.11 224 00:51:53 12.85 Km\h flash2 \'29
17/04/2012 Show to everybody 19 0.66 3 00:02:32 15.67 Km\h flash2 \'29
15/04/2012 Show to everybody 18 15.21 711 01:36:39 9.44 Km\h flash2 \'29
09/04/2012 Show to everybody 17 60.54 676 03:13:29 18.77 Km\h flash2 \'29
06/04/2012 Show to everybody 16 57.94 765 03:04:08 18.88 Km\h flash2 \'29
02/04/2012 Show to everybody 15 38.31 79 01:34:55 24.21 Km\h flash2 \'29
01/04/2012 Show to everybody 14 52.23 638 02:56:57 17.71 Km\h flash2 \'29
25/03/2012 Show to everybody 13 43.82 1193 02:55:19 15 Km\h flash2 \'29
18/03/2012 Show to everybody 12 33.81 894 02:35:27 13.05 Km\h flash2 \'29
11/03/2012 Show to everybody 11 28.19 621 02:02:02 13.86 Km\h flash2 \'29
04/03/2012 Show to everybody 10 46.38 559 02:46:14 16.74 Km\h flash2 \'29
03/03/2012 Show to everybody 9 51.16 124 01:57:58 26.02 Km\h flash2 \'29
02/03/2012 Show to everybody 8 2.29 2 00:06:18 21.83 Km\h flash2 \'29
26/02/2012 Show to everybody 7 56.45 721 03:21:14 16.83 Km\h flash2 \'29
25/02/2012 Show to everybody 6 40.37 96 01:35:07 25.46 Km\h flash2 \'29
19/02/2012 Show to everybody 5 57.15 659 03:05:20 18.5 Km\h flash2 \'29
17/02/2012 Show to everybody 3 1.33 7 00:08:01 9.95 Km\h flash2 \'29
17/02/2012 Show to everybody 4 2.34 15 00:07:33 18.6 Km\h flash2 \'29
07/01/2012 Show to everybody 2 60.9 277 02:26:33 24.93 Km\h flash2 \'29
05/01/2012 Show to everybody 1 32.61 23 01:17:18 25.31 Km\h flash2 \'29
Training units 0
Kilometers 0 Km
Vertical gain 0 mt
Hours of riding 00:00:00
Average speed 0 Km/h
average HR 131
Points 58
Live Tracking »

flash2 \'29 201:33:51 3596.21 Km
six13 03:15:54 85.83 Km

 
If you stop following this users you will not be able to compare your trainings with his

Now you follow this users and you can compare your trainings


MTB-Forum.it | 2012-2019 Training Camp v.1.6 rev 05